sensor_id;sensor_type;location;lat;lon;timestamp;pressure;altitude;pressure_sealevel;temperature;humidity
48527;BME280;34317;51.660;5.824;2023-03-21T00:01:51;101611.69;;;13.94;57.17
48527;BME280;34317;51.660;5.824;2023-03-21T00:04:20;101608.22;;;13.92;57.19
48527;BME280;34317;51.660;5.824;2023-03-21T00:06:47;101605.53;;;13.92;57.08
48527;BME280;34317;51.660;5.824;2023-03-21T00:09:14;101605.53;;;13.92;57.22
48527;BME280;34317;51.660;5.824;2023-03-21T00:11:42;101599.44;;;13.90;57.14
48527;BME280;34317;51.660;5.824;2023-03-21T00:14:10;101599.44;;;13.90;57.28
48527;BME280;34317;51.660;5.824;2023-03-21T00:16:40;101599.44;;;13.90;57.37
48527;BME280;34317;51.660;5.824;2023-03-21T00:19:08;101590.66;;;13.88;57.26
48527;BME280;34317;51.660;5.824;2023-03-21T00:21:35;101588.94;;;13.87;57.35
48527;BME280;34317;51.660;5.824;2023-03-21T00:24:24;101590.81;;;13.85;57.38
48527;BME280;34317;51.660;5.824;2023-03-21T00:26:51;101590.81;;;13.85;57.54
48527;BME280;34317;51.660;5.824;2023-03-21T00:29:19;101590.03;;;13.82;57.50
48527;BME280;34317;51.660;5.824;2023-03-21T00:31:46;101588.22;;;13.83;57.62
48527;BME280;34317;51.660;5.824;2023-03-21T00:34:14;101585.50;;;13.85;57.65
48527;BME280;34317;51.660;5.824;2023-03-21T00:36:42;101573.09;;;13.83;57.75
48527;BME280;34317;51.660;5.824;2023-03-21T00:39:09;101572.25;;;13.83;57.64
48527;BME280;34317;51.660;5.824;2023-03-21T00:41:37;101571.44;;;13.81;57.81
48527;BME280;34317;51.660;5.824;2023-03-21T00:44:10;101573.22;;;13.80;57.81
48527;BME280;34317;51.660;5.824;2023-03-21T00:46:40;101576.84;;;13.79;58.00
48527;BME280;34317;51.660;5.824;2023-03-21T00:49:23;101574.19;;;13.79;58.00
48527;BME280;34317;51.660;5.824;2023-03-21T00:51:50;101578.72;;;13.77;57.96
48527;BME280;34317;51.660;5.824;2023-03-21T00:54:17;101576.97;;;13.76;58.00
48527;BME280;34317;51.660;5.824;2023-03-21T00:56:45;101571.81;;;13.73;58.01
48527;BME280;34317;51.660;5.824;2023-03-21T00:59:12;101570.06;;;13.72;58.22
48527;BME280;34317;51.660;5.824;2023-03-21T01:01:39;101571.09;;;13.70;58.37
48527;BME280;34317;51.660;5.824;2023-03-21T01:04:07;101559.56;;;13.69;58.45
48527;BME280;34317;51.660;5.824;2023-03-21T01:06:41;101559.78;;;13.65;58.40
48527;BME280;34317;51.660;5.824;2023-03-21T01:09:20;101558.13;;;13.62;58.51
48527;BME280;34317;51.660;5.824;2023-03-21T01:11:48;101551.06;;;13.61;58.48
48527;BME280;34317;51.660;5.824;2023-03-21T01:14:17;101554.69;;;13.60;58.77
48527;BME280;34317;51.660;5.824;2023-03-21T01:16:51;101541.50;;;13.57;58.88
48527;BME280;34317;51.660;5.824;2023-03-21T01:19:20;101542.44;;;13.56;58.71
48527;BME280;34317;51.660;5.824;2023-03-21T01:21:55;101538.97;;;13.54;58.82
48527;BME280;34317;51.660;5.824;2023-03-21T01:24:23;101538.97;;;13.54;58.89
48527;BME280;34317;51.660;5.824;2023-03-21T01:26:50;101538.13;;;13.53;58.99
48527;BME280;34317;51.660;5.824;2023-03-21T01:29:18;101531.94;;;13.53;59.05
48527;BME280;34317;51.660;5.824;2023-03-21T01:31:45;101524.88;;;13.52;59.12
48527;BME280;34317;51.660;5.824;2023-03-21T01:34:12;101526.63;;;13.53;59.03
48527;BME280;34317;51.660;5.824;2023-03-21T01:36:40;101524.88;;;13.52;59.00
48527;BME280;34317;51.660;5.824;2023-03-21T01:39:12;101523.19;;;13.51;59.16
48527;BME280;34317;51.660;5.824;2023-03-21T01:41:41;101520.56;;;13.49;59.12
48527;BME280;34317;51.660;5.824;2023-03-21T01:44:25;101517.97;;;13.48;58.83
48527;BME280;34317;51.660;5.824;2023-03-21T01:46:53;101514.31;;;13.50;58.88
48527;BME280;34317;51.660;5.824;2023-03-21T01:49:48;101514.41;;;13.49;58.99
48527;BME280;34317;51.660;5.824;2023-03-21T01:52:36;101513.50;;;13.48;59.18
48527;BME280;34317;51.660;5.824;2023-03-21T01:55:25;101509.09;;;13.49;59.16
48527;BME280;34317;51.660;5.824;2023-03-21T01:57:57;101499.22;;;13.51;59.14
48527;BME280;34317;51.660;5.824;2023-03-21T02:00:42;101499.06;;;13.54;59.13
48527;BME280;34317;51.660;5.824;2023-03-21T02:03:23;101497.97;;;13.58;59.17
48527;BME280;34317;51.660;5.824;2023-03-21T02:06:59;101495.25;;;13.59;59.13
48527;BME280;34317;51.660;5.824;2023-03-21T02:09:43;101497.84;;;13.61;59.16
48527;BME280;34317;51.660;5.824;2023-03-21T02:12:15;101485.31;;;13.63;59.05
48527;BME280;34317;51.660;5.824;2023-03-21T02:14:47;101482.59;;;13.65;59.01
48527;BME280;34317;51.660;5.824;2023-03-21T02:17:51;101485.19;;;13.66;58.95
48527;BME280;34317;51.660;5.824;2023-03-21T02:26:36;101477.84;;;13.71;58.81
48527;BME280;34317;51.660;5.824;2023-03-21T02:29:31;101474.25;;;13.72;58.80
48527;BME280;34317;51.660;5.824;2023-03-21T02:32:10;101469.75;;;13.73;58.94
48527;BME280;34317;51.660;5.824;2023-03-21T02:35:39;101468.91;;;13.72;58.74
48527;BME280;34317;51.660;5.824;2023-03-21T02:41:15;101457.41;;;13.72;58.74
48527;BME280;34317;51.660;5.824;2023-03-21T02:43:53;101452.94;;;13.72;58.75
48527;BME280;34317;51.660;5.824;2023-03-21T02:46:29;101451.22;;;13.71;58.70
48527;BME280;34317;51.660;5.824;2023-03-21T02:49:29;101451.22;;;13.71;58.81
48527;BME280;34317;51.660;5.824;2023-03-21T02:51:58;101442.44;;;13.69;58.64
48527;BME280;34317;51.660;5.824;2023-03-21T02:54:41;101445.09;;;13.69;58.57
48527;BME280;34317;51.660;5.824;2023-03-21T02:57:18;101451.38;;;13.68;58.80
48527;BME280;34317;51.660;5.824;2023-03-21T02:59:49;101445.09;;;13.69;58.69
48527;BME280;34317;51.660;5.824;2023-03-21T03:02:31;101446.03;;;13.68;58.69
48527;BME280;34317;51.660;5.824;2023-03-21T03:04:58;101447.91;;;13.66;58.71
48527;BME280;34317;51.660;5.824;2023-03-21T03:07:49;101440.84;;;13.65;58.70
48527;BME280;34317;51.660;5.824;2023-03-21T03:19:07;101442.72;;;13.63;58.84
48527;BME280;34317;51.660;5.824;2023-03-21T03:21:48;101441.88;;;13.62;58.79
48527;BME280;34317;51.660;5.824;2023-03-21T03:24:28;101433.81;;;13.64;58.74
48527;BME280;34317;51.660;5.824;2023-03-21T03:27:08;101433.81;;;13.64;58.52
48527;BME280;34317;51.660;5.824;2023-03-21T03:29:39;101439.16;;;13.64;58.66
48527;BME280;34317;51.660;5.824;2023-03-21T03:32:16;101427.63;;;13.63;58.87
48527;BME280;34317;51.660;5.824;2023-03-21T03:34:50;101431.16;;;13.64;58.64
48527;BME280;34317;51.660;5.824;2023-03-21T03:37:22;101422.28;;;13.63;58.61
48527;BME280;34317;51.660;5.824;2023-03-21T03:39:57;101430.38;;;13.62;58.52
48527;BME280;34317;51.660;5.824;2023-03-21T03:42:50;101419.88;;;13.59;58.55
48527;BME280;34317;51.660;5.824;2023-03-21T03:45:31;101419.00;;;13.58;58.77
48527;BME280;34317;51.660;5.824;2023-03-21T03:50:47;101418.13;;;13.58;58.65
48527;BME280;34317;51.660;5.824;2023-03-21T03:53:27;101420.78;;;13.58;58.59
48527;BME280;34317;51.660;5.824;2023-03-21T03:55:58;101419.00;;;13.58;58.57
48527;BME280;34317;51.660;5.824;2023-03-21T03:58:26;101421.59;;;13.60;58.69
48527;BME280;34317;51.660;5.824;2023-03-21T04:01:12;101420.72;;;13.59;58.55
48527;BME280;34317;51.660;5.824;2023-03-21T04:03:42;101414.53;;;13.59;58.54
48527;BME280;34317;51.660;5.824;2023-03-21T04:06:20;101418.13;;;13.58;58.45
48527;BME280;34317;51.660;5.824;2023-03-21T04:08:50;101404.03;;;13.56;58.58
48527;BME280;34317;51.660;5.824;2023-03-21T04:11:17;101404.22;;;13.53;58.60
48527;BME280;34317;51.660;5.824;2023-03-21T04:13:49;101403.41;;;13.51;58.58
48527;BME280;34317;51.660;5.824;2023-03-21T04:16:21;101403.50;;;13.49;58.56
48527;BME280;34317;51.660;5.824;2023-03-21T04:18:49;101398.22;;;13.48;58.70
48527;BME280;34317;51.660;5.824;2023-03-21T04:21:18;101399.16;;;13.47;58.59
48527;BME280;34317;51.660;5.824;2023-03-21T04:23:45;101401.03;;;13.44;58.80
48527;BME280;34317;51.660;5.824;2023-03-21T04:26:13;101392.25;;;13.42;58.67
48527;BME280;34317;51.660;5.824;2023-03-21T04:28:49;101402.91;;;13.42;58.87
48527;BME280;34317;51.660;5.824;2023-03-21T04:31:22;101395.88;;;13.41;58.71
48527;BME280;34317;51.660;5.824;2023-03-21T04:34:04;101388.81;;;13.40;58.91
48527;BME280;34317;51.660;5.824;2023-03-21T04:36:36;101388.81;;;13.40;58.84
48527;BME280;34317;51.660;5.824;2023-03-21T04:39:14;101394.31;;;13.37;59.04
48527;BME280;34317;51.660;5.824;2023-03-21T04:41:46;101381.91;;;13.36;59.01
48527;BME280;34317;51.660;5.824;2023-03-21T04:44:15;101383.81;;;13.34;59.01
48527;BME280;34317;51.660;5.824;2023-03-21T04:46:43;101391.78;;;13.34;58.94
48527;BME280;34317;51.660;5.824;2023-03-21T04:49:12;101381.13;;;13.34;59.06
48527;BME280;34317;51.660;5.824;2023-03-21T04:51:41;101382.06;;;13.33;59.14
48527;BME280;34317;51.660;5.824;2023-03-21T04:54:12;101379.50;;;13.32;59.09
48527;BME280;34317;51.660;5.824;2023-03-21T04:56:40;101379.56;;;13.30;59.28
48527;BME280;34317;51.660;5.824;2023-03-21T04:59:11;101375.13;;;13.29;59.22
48527;BME280;34317;51.660;5.824;2023-03-21T05:01:39;101368.09;;;13.28;59.30
48527;BME280;34317;51.660;5.824;2023-03-21T05:04:11;101377.00;;;13.27;59.24
48527;BME280;34317;51.660;5.824;2023-03-21T05:06:40;101375.31;;;13.26;59.43
48527;BME280;34317;51.660;5.824;2023-03-21T05:09:11;101377.97;;;13.26;59.39
48527;BME280;34317;51.660;5.824;2023-03-21T05:11:39;101373.56;;;13.25;59.38
48527;BME280;34317;51.660;5.824;2023-03-21T05:14:10;101377.97;;;13.26;59.46
48527;BME280;34317;51.660;5.824;2023-03-21T05:16:42;101382.34;;;13.27;59.50
48527;BME280;34317;51.660;5.824;2023-03-21T05:19:11;101378.75;;;13.28;59.32
48527;BME280;34317;51.660;5.824;2023-03-21T05:21:41;101373.44;;;13.28;59.41
48527;BME280;34317;51.660;5.824;2023-03-21T05:24:20;101369.03;;;13.27;59.38
48527;BME280;34317;51.660;5.824;2023-03-21T05:26:49;101366.38;;;13.27;59.42
48527;BME280;34317;51.660;5.824;2023-03-21T05:29:18;101369.97;;;13.26;59.57
48527;BME280;34317;51.660;5.824;2023-03-21T05:31:52;101362.78;;;13.28;59.43
48527;BME280;34317;51.660;5.824;2023-03-21T05:34:20;101368.09;;;13.28;59.49
48527;BME280;34317;51.660;5.824;2023-03-21T05:36:47;101367.16;;;13.29;59.46
48527;BME280;34317;51.660;5.824;2023-03-21T05:39:15;101359.19;;;13.29;59.47
48527;BME280;34317;51.660;5.824;2023-03-21T05:41:51;101367.97;;;13.31;59.42
48527;BME280;34317;51.660;5.824;2023-03-21T05:44:18;101353.84;;;13.29;59.11
48527;BME280;34317;51.660;5.824;2023-03-21T05:46:45;101355.63;;;13.30;59.35
48527;BME280;34317;51.660;5.824;2023-03-21T05:49:12;101355.63;;;13.30;59.38
48527;BME280;34317;51.660;5.824;2023-03-21T05:51:41;101352.00;;;13.31;59.41
48527;BME280;34317;51.660;5.824;2023-03-21T05:54:08;101359.06;;;13.32;59.37
48527;BME280;34317;51.660;5.824;2023-03-21T05:56:35;101353.75;;;13.32;59.25
48527;BME280;34317;51.660;5.824;2023-03-21T05:59:05;101354.53;;;13.34;59.26
48527;BME280;34317;51.660;5.824;2023-03-21T06:01:39;101351.88;;;13.34;59.22
48527;BME280;34317;51.660;5.824;2023-03-21T06:04:11;101344.69;;;13.36;59.28
48527;BME280;34317;51.660;5.824;2023-03-21T06:06:39;101346.41;;;13.37;59.24
48527;BME280;34317;51.660;5.824;2023-03-21T06:09:07;101348.13;;;13.38;59.28
48527;BME280;34317;51.660;5.824;2023-03-21T06:11:36;101349.84;;;13.39;59.09
48527;BME280;34317;51.660;5.824;2023-03-21T06:14:23;101351.56;;;13.40;59.17
48527;BME280;34317;51.660;5.824;2023-03-21T06:17:08;101353.31;;;13.41;59.01
48527;BME280;34317;51.660;5.824;2023-03-21T06:19:42;101355.00;;;13.42;58.97
48527;BME280;34317;51.660;5.824;2023-03-21T06:22:15;101351.44;;;13.43;59.15
48527;BME280;34317;51.660;5.824;2023-03-21T06:24:43;101351.34;;;13.45;59.10
48527;BME280;34317;51.660;5.824;2023-03-21T06:27:10;101348.59;;;13.47;59.04
48527;BME280;34317;51.660;5.824;2023-03-21T06:29:48;101349.41;;;13.49;59.11
48527;BME280;34317;51.660;5.824;2023-03-21T06:32:16;101345.78;;;13.50;59.05
48527;BME280;34317;51.660;5.824;2023-03-21T06:34:44;101355.53;;;13.51;58.92
48527;BME280;34317;51.660;5.824;2023-03-21T06:37:14;101343.06;;;13.51;58.98
48527;BME280;34317;51.660;5.824;2023-03-21T06:39:41;101346.50;;;13.53;58.94
48527;BME280;34317;51.660;5.824;2023-03-21T06:42:09;101348.25;;;13.54;58.98
48527;BME280;34317;51.660;5.824;2023-03-21T06:44:36;101351.69;;;13.56;59.04
48527;BME280;34317;51.660;5.824;2023-03-21T06:47:07;101351.69;;;13.56;58.86
48527;BME280;34317;51.660;5.824;2023-03-21T06:49:35;101348.94;;;13.58;59.06
48527;BME280;34317;51.660;5.824;2023-03-21T06:52:07;101357.72;;;13.60;58.99
48527;BME280;34317;51.660;5.824;2023-03-21T06:54:34;101353.19;;;13.62;58.93
48527;BME280;34317;51.660;5.824;2023-03-21T06:57:09;101355.69;;;13.65;59.14
48527;BME280;34317;51.660;5.824;2023-03-21T06:59:37;101355.53;;;13.68;58.92
48527;BME280;34317;51.660;5.824;2023-03-21T07:02:11;101347.47;;;13.70;59.03
48527;BME280;34317;51.660;5.824;2023-03-21T07:04:45;101349.91;;;13.74;58.92
48527;BME280;34317;51.660;5.824;2023-03-21T07:07:17;101344.44;;;13.77;58.81
48527;BME280;34317;51.660;5.824;2023-03-21T07:09:44;101349.59;;;13.80;58.82
48527;BME280;34317;51.660;5.824;2023-03-21T07:12:11;101352.16;;;13.82;58.88
48527;BME280;34317;51.660;5.824;2023-03-21T07:15:02;101354.75;;;13.83;58.66
48527;BME280;34317;51.660;5.824;2023-03-21T07:17:31;101363.38;;;13.89;58.83
48527;BME280;34317;51.660;5.824;2023-03-21T07:19:59;101357.88;;;13.92;58.84
48527;BME280;34317;51.660;5.824;2023-03-21T07:22:26;101366.50;;;13.97;58.91
48527;BME280;34317;51.660;5.824;2023-03-21T07:24:53;101366.38;;;14.00;58.77
48527;BME280;34317;51.660;5.824;2023-03-21T07:27:36;101367.94;;;14.04;58.89
48527;BME280;34317;51.660;5.824;2023-03-21T07:30:07;101367.78;;;14.07;58.65
48527;BME280;34317;51.660;5.824;2023-03-21T07:32:35;101374.81;;;14.08;58.70
48527;BME280;34317;51.660;5.824;2023-03-21T07:35:10;101370.44;;;14.07;58.68
48527;BME280;34317;51.660;5.824;2023-03-21T07:37:39;101378.44;;;14.07;58.80
48527;BME280;34317;51.660;5.824;2023-03-21T07:40:08;101376.69;;;14.06;58.87
48527;BME280;34317;51.660;5.824;2023-03-21T07:42:38;101374.03;;;14.06;58.91
48527;BME280;34317;51.660;5.824;2023-03-21T07:45:06;101374.03;;;14.06;59.00
48527;BME280;34317;51.660;5.824;2023-03-21T07:47:34;101382.03;;;14.06;58.97
48527;BME280;34317;51.660;5.824;2023-03-21T07:50:02;101387.34;;;14.06;59.03
48527;BME280;34317;51.660;5.824;2023-03-21T07:52:30;101395.28;;;14.08;59.08
48527;BME280;34317;51.660;5.824;2023-03-21T07:54:57;101390.81;;;14.08;59.22
48527;BME280;34317;51.660;5.824;2023-03-21T07:57:24;101387.22;;;14.09;59.16
48527;BME280;34317;51.660;5.824;2023-03-21T07:59:52;101398.78;;;14.08;59.22
48527;BME280;34317;51.660;5.824;2023-03-21T08:02:19;101384.53;;;14.09;59.36
48527;BME280;34317;51.660;5.824;2023-03-21T08:04:46;101388.91;;;14.10;59.17
48527;BME280;34317;51.660;5.824;2023-03-21T08:07:13;101387.22;;;14.09;59.25
48527;BME280;34317;51.660;5.824;2023-03-21T08:09:42;101382.03;;;14.06;59.31
48527;BME280;34317;51.660;5.824;2023-03-21T08:12:10;101380.28;;;14.05;59.39
48527;BME280;34317;51.660;5.824;2023-03-21T08:14:37;101378.59;;;14.04;59.71
48527;BME280;34317;51.660;5.824;2023-03-21T08:17:05;101372.41;;;14.04;59.55
48527;BME280;34317;51.660;5.824;2023-03-21T08:19:32;101374.97;;;14.05;59.61
48527;BME280;34317;51.660;5.824;2023-03-21T08:22:00;101374.09;;;14.05;59.58
48527;BME280;34317;51.660;5.824;2023-03-21T08:24:28;101363.38;;;14.06;59.56
48527;BME280;34317;51.660;5.824;2023-03-21T08:26:56;101369.50;;;14.08;59.68
48527;BME280;34317;51.660;5.824;2023-03-21T08:29:23;101355.25;;;14.09;59.70
48527;BME280;34317;51.660;5.824;2023-03-21T08:31:50;101347.25;;;14.09;59.76
48527;BME280;34317;51.660;5.824;2023-03-21T08:34:18;101346.28;;;14.10;59.80
48527;BME280;34317;51.660;5.824;2023-03-21T08:36:46;101342.72;;;14.11;59.84
48527;BME280;34317;51.660;5.824;2023-03-21T08:39:13;101331.03;;;14.14;59.86
48527;BME280;34317;51.660;5.824;2023-03-21T08:41:40;101335.31;;;14.16;59.87
48527;BME280;34317;51.660;5.824;2023-03-21T08:44:09;101339.63;;;14.19;59.92
48527;BME280;34317;51.660;5.824;2023-03-21T08:46:36;101338.59;;;14.21;59.96
48527;BME280;34317;51.660;5.824;2023-03-21T08:49:03;101336.72;;;14.24;60.12
48527;BME280;34317;51.660;5.824;2023-03-21T08:51:31;101327.63;;;14.28;59.95
48527;BME280;34317;51.660;5.824;2023-03-21T08:53:59;101333.66;;;14.31;60.06
48527;BME280;34317;51.660;5.824;2023-03-21T08:56:26;101331.69;;;14.35;60.15
48527;BME280;34317;51.660;5.824;2023-03-21T08:58:53;101330.56;;;14.39;60.12
48527;BME280;34317;51.660;5.824;2023-03-21T09:01:20;101329.66;;;14.40;59.97
48527;BME280;34317;51.660;5.824;2023-03-21T09:03:48;101330.44;;;14.42;60.10
48527;BME280;34317;51.660;5.824;2023-03-21T09:06:15;101335.69;;;14.44;60.12
48527;BME280;34317;51.660;5.824;2023-03-21T09:08:43;101338.28;;;14.45;60.05
48527;BME280;34317;51.660;5.824;2023-03-21T09:11:13;101330.28;;;14.45;59.98
48527;BME280;34317;51.660;5.824;2023-03-21T09:13:40;101332.94;;;14.45;60.05
48527;BME280;34317;51.660;5.824;2023-03-21T09:16:07;101331.97;;;14.46;60.00
48527;BME280;34317;51.660;5.824;2023-03-21T09:18:34;101326.66;;;14.46;60.08
48527;BME280;34317;51.660;5.824;2023-03-21T09:21:12;101330.09;;;14.48;60.16
48527;BME280;34317;51.660;5.824;2023-03-21T09:23:40;101326.34;;;14.52;60.22
48527;BME280;34317;51.660;5.824;2023-03-21T09:26:08;101324.44;;;14.54;60.25
48527;BME280;34317;51.660;5.824;2023-03-21T09:28:35;101317.22;;;14.56;60.08
48527;BME280;34317;51.660;5.824;2023-03-21T09:31:06;101310.03;;;14.58;60.27
48527;BME280;34317;51.660;5.824;2023-03-21T09:33:34;101297.47;;;14.60;60.08
48527;BME280;34317;51.660;5.824;2023-03-21T09:36:01;101299.19;;;14.62;60.12
48527;BME280;34317;51.660;5.824;2023-03-21T09:38:36;101304.53;;;14.62;59.99
48527;BME280;34317;51.660;5.824;2023-03-21T09:41:24;101298.34;;;14.61;60.21
48527;BME280;34317;51.660;5.824;2023-03-21T09:46:38;101290.09;;;14.66;60.20
48527;BME280;34317;51.660;5.824;2023-03-21T09:49:18;101287.09;;;14.72;60.40
48527;BME280;34317;51.660;5.824;2023-03-21T09:51:49;101289.41;;;14.78;60.51
48527;BME280;34317;51.660;5.824;2023-03-21T09:56:51;101291.56;;;14.87;60.53
48527;BME280;34317;51.660;5.824;2023-03-21T09:59:28;101286.00;;;14.92;60.53
48527;BME280;34317;51.660;5.824;2023-03-21T10:01:59;101281.16;;;14.98;60.48
48527;BME280;34317;51.660;5.824;2023-03-21T10:04:27;101275.47;;;15.05;60.44
48527;BME280;34317;51.660;5.824;2023-03-21T10:06:57;101271.69;;;15.09;60.63
48527;BME280;34317;51.660;5.824;2023-03-21T10:09:26;101264.47;;;15.11;60.10
48527;BME280;34317;51.660;5.824;2023-03-21T10:12:34;101261.03;;;15.09;60.05
48527;BME280;34317;51.660;5.824;2023-03-21T10:14:58;101264.47;;;15.11;60.02
48527;BME280;34317;51.660;5.824;2023-03-21T10:17:36;101256.25;;;15.14;59.97
48527;BME280;34317;51.660;5.824;2023-03-21T10:22:39;101253.25;;;15.20;59.65
48527;BME280;34317;51.660;5.824;2023-03-21T10:25:09;101249.63;;;15.21;59.77
48527;BME280;34317;51.660;5.824;2023-03-21T10:27:39;101245.81;;;15.25;59.61
48527;BME280;34317;51.660;5.824;2023-03-21T10:30:08;101247.38;;;15.29;59.63
48527;BME280;34317;51.660;5.824;2023-03-21T10:32:41;101245.50;;;15.31;59.35
48527;BME280;34317;51.660;5.824;2023-03-21T10:35:12;101247.97;;;15.34;59.31
48527;BME280;34317;51.660;5.824;2023-03-21T10:37:39;101245.13;;;15.37;59.37
48527;BME280;34317;51.660;5.824;2023-03-21T10:40:14;101228.91;;;15.41;59.27
48527;BME280;34317;51.660;5.824;2023-03-21T10:42:42;101231.41;;;15.44;59.14
48527;BME280;34317;51.660;5.824;2023-03-21T10:45:17;101222.25;;;15.48;58.96
48527;BME280;34317;51.660;5.824;2023-03-21T10:47:47;101227.50;;;15.49;58.86
48527;BME280;34317;51.660;5.824;2023-03-21T10:50:17;101227.34;;;15.52;58.81
48527;BME280;34317;51.660;5.824;2023-03-21T10:52:49;101231.63;;;15.55;58.73
48527;BME280;34317;51.660;5.824;2023-03-21T10:55:38;101226.28;;;15.55;58.63
48527;BME280;34317;51.660;5.824;2023-03-21T10:58:12;101221.63;;;15.58;58.56
48527;BME280;34317;51.660;5.824;2023-03-21T11:00:45;101220.56;;;15.61;58.62
48527;BME280;34317;51.660;5.824;2023-03-21T11:03:35;101230.16;;;15.65;58.47
48527;BME280;34317;51.660;5.824;2023-03-21T11:06:07;101225.56;;;15.67;58.33
48527;BME280;34317;51.660;5.824;2023-03-21T11:08:40;101236.03;;;15.70;58.53
48527;BME280;34317;51.660;5.824;2023-03-21T11:11:09;101234.00;;;15.75;58.37
48527;BME280;34317;51.660;5.824;2023-03-21T11:13:43;101239.16;;;15.79;58.39
48527;BME280;34317;51.660;5.824;2023-03-21T11:16:20;101242.41;;;15.84;58.35
48527;BME280;34317;51.660;5.824;2023-03-21T11:18:50;101236.69;;;15.90;58.37
48527;BME280;34317;51.660;5.824;2023-03-21T11:21:18;101243.56;;;15.94;58.28
48527;BME280;34317;51.660;5.824;2023-03-21T11:23:48;101239.75;;;15.98;58.20
48527;BME280;34317;51.660;5.824;2023-03-21T11:26:25;101235.75;;;16.05;58.05
48527;BME280;34317;51.660;5.824;2023-03-21T11:28:53;101224.00;;;16.08;57.84
48527;BME280;34317;51.660;5.824;2023-03-21T11:31:21;101223.81;;;16.11;57.62
48527;BME280;34317;51.660;5.824;2023-03-21T11:33:54;101216.56;;;16.13;57.67
48527;BME280;34317;51.660;5.824;2023-03-21T11:36:30;101220.84;;;16.15;57.69
48527;BME280;34317;51.660;5.824;2023-03-21T11:39:29;101215.31;;;16.19;57.33
48527;BME280;34317;51.660;5.824;2023-03-21T11:41:57;101219.53;;;16.23;57.14
48527;BME280;34317;51.660;5.824;2023-03-21T11:44:30;101212.25;;;16.25;56.95
48527;BME280;34317;51.660;5.824;2023-03-21T11:46:58;101215.59;;;16.28;57.02
48527;BME280;34317;51.660;5.824;2023-03-21T11:49:27;101215.19;;;16.34;57.07
48527;BME280;34317;51.660;5.824;2023-03-21T11:52:05;101210.34;;;16.41;56.76
48527;BME280;34317;51.660;5.824;2023-03-21T11:57:57;101207.44;;;16.44;56.36
48527;BME280;34317;51.660;5.824;2023-03-21T12:00:20;101203.66;;;16.48;56.43
48527;BME280;34317;51.660;5.824;2023-03-21T12:05:31;101203.59;;;16.63;55.89
48527;BME280;34317;51.660;5.824;2023-03-21T12:08:21;101193.66;;;16.65;56.46
48527;BME280;34317;51.660;5.824;2023-03-21T12:16:27;101179.31;;;16.80;55.84
48527;BME280;34317;51.660;5.824;2023-03-21T12:21:57;101176.81;;;16.91;55.82
48527;BME280;34317;51.660;5.824;2023-03-21T12:24:36;101171.03;;;16.98;55.53
48527;BME280;34317;51.660;5.824;2023-03-21T12:27:14;101175.22;;;17.02;55.14
48527;BME280;34317;51.660;5.824;2023-03-21T12:38:14;101147.97;;;17.22;54.50
48527;BME280;34317;51.660;5.824;2023-03-21T12:41:07;101145.84;;;17.27;54.19
48527;BME280;34317;51.660;5.824;2023-03-21T12:43:46;101149.03;;;17.32;54.02
48527;BME280;34317;51.660;5.824;2023-03-21T12:46:21;101146.91;;;17.38;53.82
48527;BME280;34317;51.660;5.824;2023-03-21T12:51:42;101146.94;;;17.50;53.58
48527;BME280;34317;51.660;5.824;2023-03-21T12:54:19;101135.78;;;17.57;53.27
48527;BME280;34317;51.660;5.824;2023-03-21T12:56:54;101135.47;;;17.61;53.21
48527;BME280;34317;51.660;5.824;2023-03-21T12:59:41;101137.72;;;17.67;53.14
48527;BME280;34317;51.660;5.824;2023-03-21T13:02:49;101139.22;;;17.71;52.93
48527;BME280;34317;51.660;5.824;2023-03-21T13:05:29;101141.69;;;17.75;52.51
48527;BME280;34317;51.660;5.824;2023-03-21T13:10:31;101126.13;;;17.80;52.34
48527;BME280;34317;51.660;5.824;2023-03-21T13:16:08;101131.09;;;17.86;51.76
48527;BME280;34317;51.660;5.824;2023-03-21T13:18:57;101129.16;;;17.88;51.37
48527;BME280;34317;51.660;5.824;2023-03-21T13:21:43;101120.13;;;17.89;51.15
48527;BME280;34317;51.660;5.824;2023-03-21T13:29:49;101116.16;;;17.95;50.68
48527;BME280;34317;51.660;5.824;2023-03-21T13:32:40;101118.00;;;17.94;50.46
48527;BME280;34317;51.660;5.824;2023-03-21T13:35:20;101110.91;;;17.93;50.35
48527;BME280;34317;51.660;5.824;2023-03-21T13:38:01;101099.44;;;17.91;50.44
48527;BME280;34317;51.660;5.824;2023-03-21T13:40:39;101097.50;;;17.93;50.40
48527;BME280;34317;51.660;5.824;2023-03-21T13:43:31;101092.47;;;18.01;50.57
48527;BME280;34317;51.660;5.824;2023-03-21T13:46:12;101091.56;;;18.14;50.58
48527;BME280;34317;51.660;5.824;2023-03-21T13:48:41;101091.78;;;18.23;50.55
48527;BME280;34317;51.660;5.824;2023-03-21T13:53:59;101081.78;;;18.49;50.11
48527;BME280;34317;51.660;5.824;2023-03-21T13:56:27;101082.81;;;18.60;50.02
48527;BME280;34317;51.660;5.824;2023-03-21T13:59:01;101076.50;;;18.72;49.78
48527;BME280;34317;51.660;5.824;2023-03-21T14:01:30;101073.16;;;18.81;49.44
48527;BME280;34317;51.660;5.824;2023-03-21T14:04:18;101068.53;;;18.83;49.23
48527;BME280;34317;51.660;5.824;2023-03-21T14:06:55;101064.88;;;18.84;48.67
48527;BME280;34317;51.660;5.824;2023-03-21T14:09:34;101065.09;;;18.81;48.56
48527;BME280;34317;51.660;5.824;2023-03-21T14:12:06;101068.78;;;18.80;48.54
48527;BME280;34317;51.660;5.824;2023-03-21T14:14:40;101051.69;;;18.81;48.60
48527;BME280;34317;51.660;5.824;2023-03-21T14:17:29;101050.50;;;18.85;48.68
48527;BME280;34317;51.660;5.824;2023-03-21T14:20:05;101049.19;;;18.91;48.63
48527;BME280;34317;51.660;5.824;2023-03-21T14:22:38;101045.03;;;18.98;48.75
48527;BME280;34317;51.660;5.824;2023-03-21T14:25:11;101039.81;;;19.08;48.59
48527;BME280;34317;51.660;5.824;2023-03-21T14:27:44;101042.53;;;19.19;48.60
48527;BME280;34317;51.660;5.824;2023-03-21T14:30:23;101045.44;;;19.28;48.23